Terminal Aerodrome Forecast
Issued by NWS

Home | Current Version | Previous Version | Text Only | Print | Product List | Glossary On
Versions: 1 2 3 4 5 6 7 8 9 10 11 12 13 14 15 16 17 18 19 20 21 22
000
FTUS43 KAPX 300535
TAFMBL
TAF
KMBL 300535Z 3006/3106 09003KT 3SM BR BKN250
      TEMPO 3006/3010 3/4SM BR FEW002
     FM301200 09003KT P6SM BKN200
     FM301500 26006KT P6SM VCSH SCT050 BKN150
     FM302100 29006KT P6SM VCSH SCT050 BKN120
     FM310300 02005KT P6SM VCSH SCT050 BKN080=

USA.gov is the U.S. government's official web portal to all federal, state and local government web resources and services.